sensor_id;sensor_type;location;lat;lon;timestamp;P1;durP1;ratioP1;P2;durP2;ratioP2
3941;SDS011;1985;48.592;8.850;2022-12-18T00:00:55;31.10;;;10.90;;
3941;SDS011;1985;48.592;8.850;2022-12-18T00:03:21;21.52;;;9.70;;
3941;SDS011;1985;48.592;8.850;2022-12-18T00:05:47;22.10;;;9.90;;
3941;SDS011;1985;48.592;8.850;2022-12-18T00:08:14;26.15;;;10.70;;
3941;SDS011;1985;48.592;8.850;2022-12-18T00:10:40;21.37;;;10.20;;
3941;SDS011;1985;48.592;8.850;2022-12-18T00:13:06;26.35;;;11.20;;
3941;SDS011;1985;48.592;8.850;2022-12-18T00:15:33;26.00;;;11.13;;
3941;SDS011;1985;48.592;8.850;2022-12-18T00:17:59;27.52;;;10.57;;
3941;SDS011;1985;48.592;8.850;2022-12-18T00:20:25;27.53;;;10.37;;
3941;SDS011;1985;48.592;8.850;2022-12-18T00:22:54;25.77;;;11.80;;
3941;SDS011;1985;48.592;8.850;2022-12-18T00:25:19;27.85;;;12.18;;
3941;SDS011;1985;48.592;8.850;2022-12-18T00:27:45;30.50;;;12.90;;
3941;SDS011;1985;48.592;8.850;2022-12-18T00:30:11;31.03;;;10.07;;
3941;SDS011;1985;48.592;8.850;2022-12-18T00:32:37;22.73;;;10.30;;
3941;SDS011;1985;48.592;8.850;2022-12-18T00:35:03;28.30;;;11.25;;
3941;SDS011;1985;48.592;8.850;2022-12-18T00:37:29;25.45;;;9.77;;
3941;SDS011;1985;48.592;8.850;2022-12-18T00:39:55;24.20;;;10.27;;
3941;SDS011;1985;48.592;8.850;2022-12-18T00:42:21;23.67;;;9.47;;
3941;SDS011;1985;48.592;8.850;2022-12-18T00:45:05;34.42;;;15.00;;
3941;SDS011;1985;48.592;8.850;2022-12-18T00:47:31;32.05;;;13.63;;
3941;SDS011;1985;48.592;8.850;2022-12-18T00:49:57;35.60;;;12.50;;
3941;SDS011;1985;48.592;8.850;2022-12-18T00:52:22;23.80;;;11.88;;
3941;SDS011;1985;48.592;8.850;2022-12-18T00:54:48;22.27;;;10.17;;
3941;SDS011;1985;48.592;8.850;2022-12-18T00:57:14;39.63;;;11.17;;
3941;SDS011;1985;48.592;8.850;2022-12-18T00:59:39;24.97;;;11.03;;
3941;SDS011;1985;48.592;8.850;2022-12-18T01:02:05;25.07;;;10.70;;
3941;SDS011;1985;48.592;8.850;2022-12-18T01:04:31;33.30;;;12.10;;
3941;SDS011;1985;48.592;8.850;2022-12-18T01:06:57;26.58;;;10.55;;
3941;SDS011;1985;48.592;8.850;2022-12-18T01:09:23;27.83;;;11.60;;
3941;SDS011;1985;48.592;8.850;2022-12-18T01:11:48;27.90;;;12.32;;
3941;SDS011;1985;48.592;8.850;2022-12-18T01:14:14;27.98;;;11.60;;
3941;SDS011;1985;48.592;8.850;2022-12-18T01:16:40;27.63;;;12.02;;
3941;SDS011;1985;48.592;8.850;2022-12-18T01:19:05;49.25;;;12.00;;
3941;SDS011;1985;48.592;8.850;2022-12-18T01:21:31;21.47;;;9.13;;
3941;SDS011;1985;48.592;8.850;2022-12-18T01:23:57;30.42;;;9.20;;
3941;SDS011;1985;48.592;8.850;2022-12-18T01:26:23;27.77;;;11.57;;
3941;SDS011;1985;48.592;8.850;2022-12-18T01:28:50;31.55;;;10.57;;
3941;SDS011;1985;48.592;8.850;2022-12-18T01:31:20;25.07;;;10.10;;
3941;SDS011;1985;48.592;8.850;2022-12-18T01:33:47;26.23;;;9.50;;
3941;SDS011;1985;48.592;8.850;2022-12-18T01:36:17;24.50;;;9.32;;
3941;SDS011;1985;48.592;8.850;2022-12-18T01:38:45;21.75;;;9.70;;
3941;SDS011;1985;48.592;8.850;2022-12-18T01:41:11;27.10;;;10.45;;
3941;SDS011;1985;48.592;8.850;2022-12-18T01:43:57;24.30;;;10.90;;
3941;SDS011;1985;48.592;8.850;2022-12-18T01:46:26;22.77;;;9.27;;
3941;SDS011;1985;48.592;8.850;2022-12-18T01:48:53;25.02;;;9.20;;
3941;SDS011;1985;48.592;8.850;2022-12-18T01:51:25;26.98;;;10.15;;
3941;SDS011;1985;48.592;8.850;2022-12-18T01:53:52;30.20;;;10.70;;
3941;SDS011;1985;48.592;8.850;2022-12-18T01:56:18;28.90;;;10.05;;
3941;SDS011;1985;48.592;8.850;2022-12-18T02:01:27;28.48;;;11.40;;
3941;SDS011;1985;48.592;8.850;2022-12-18T02:03:55;26.85;;;10.55;;
3941;SDS011;1985;48.592;8.850;2022-12-18T02:06:24;25.63;;;10.98;;
3941;SDS011;1985;48.592;8.850;2022-12-18T02:09:01;27.35;;;11.20;;
3941;SDS011;1985;48.592;8.850;2022-12-18T02:27:58;35.43;;;12.50;;
3941;SDS011;1985;48.592;8.850;2022-12-18T02:30:27;28.75;;;11.75;;
3941;SDS011;1985;48.592;8.850;2022-12-18T02:32:57;38.45;;;12.15;;
3941;SDS011;1985;48.592;8.850;2022-12-18T02:35:26;39.50;;;14.80;;
3941;SDS011;1985;48.592;8.850;2022-12-18T02:37:55;49.15;;;12.80;;
3941;SDS011;1985;48.592;8.850;2022-12-18T02:40:21;31.73;;;11.85;;
3941;SDS011;1985;48.592;8.850;2022-12-18T02:42:49;43.30;;;13.32;;
3941;SDS011;1985;48.592;8.850;2022-12-18T02:45:15;32.33;;;12.90;;
3941;SDS011;1985;48.592;8.850;2022-12-18T02:47:42;36.13;;;12.07;;
3941;SDS011;1985;48.592;8.850;2022-12-18T02:55:32;28.70;;;12.17;;
3941;SDS011;1985;48.592;8.850;2022-12-18T03:01:07;28.17;;;11.90;;
3941;SDS011;1985;48.592;8.850;2022-12-18T03:03:42;31.05;;;11.10;;
3941;SDS011;1985;48.592;8.850;2022-12-18T03:09:01;23.55;;;11.02;;
3941;SDS011;1985;48.592;8.850;2022-12-18T03:11:30;30.60;;;11.77;;
3941;SDS011;1985;48.592;8.850;2022-12-18T03:14:17;34.60;;;11.93;;
3941;SDS011;1985;48.592;8.850;2022-12-18T03:16:47;31.88;;;11.45;;
3941;SDS011;1985;48.592;8.850;2022-12-18T03:19:16;28.50;;;12.63;;
3941;SDS011;1985;48.592;8.850;2022-12-18T03:21:51;35.50;;;12.90;;
3941;SDS011;1985;48.592;8.850;2022-12-18T03:24:19;33.77;;;13.17;;
3941;SDS011;1985;48.592;8.850;2022-12-18T03:26:47;42.90;;;14.48;;
3941;SDS011;1985;48.592;8.850;2022-12-18T03:29:21;34.08;;;13.73;;
3941;SDS011;1985;48.592;8.850;2022-12-18T03:32:08;39.85;;;13.07;;
3941;SDS011;1985;48.592;8.850;2022-12-18T03:34:42;41.40;;;14.38;;
3941;SDS011;1985;48.592;8.850;2022-12-18T03:37:11;34.20;;;12.60;;
3941;SDS011;1985;48.592;8.850;2022-12-18T03:39:37;28.20;;;11.80;;
3941;SDS011;1985;48.592;8.850;2022-12-18T03:47:13;33.07;;;12.70;;
3941;SDS011;1985;48.592;8.850;2022-12-18T03:50:16;36.92;;;13.75;;
3941;SDS011;1985;48.592;8.850;2022-12-18T03:52:51;37.95;;;13.25;;
3941;SDS011;1985;48.592;8.850;2022-12-18T03:55:30;41.60;;;13.43;;
3941;SDS011;1985;48.592;8.850;2022-12-18T03:57:59;30.88;;;13.13;;
3941;SDS011;1985;48.592;8.850;2022-12-18T04:00:26;48.35;;;14.25;;
3941;SDS011;1985;48.592;8.850;2022-12-18T04:02:54;34.05;;;11.85;;
3941;SDS011;1985;48.592;8.850;2022-12-18T04:05:21;38.22;;;13.00;;
3941;SDS011;1985;48.592;8.850;2022-12-18T04:07:49;38.08;;;13.25;;
3941;SDS011;1985;48.592;8.850;2022-12-18T04:10:17;30.40;;;13.10;;
3941;SDS011;1985;48.592;8.850;2022-12-18T04:12:43;34.85;;;13.23;;
3941;SDS011;1985;48.592;8.850;2022-12-18T04:15:09;42.10;;;12.27;;
3941;SDS011;1985;48.592;8.850;2022-12-18T04:17:35;38.67;;;14.68;;
3941;SDS011;1985;48.592;8.850;2022-12-18T04:20:01;36.87;;;12.67;;
3941;SDS011;1985;48.592;8.850;2022-12-18T04:22:27;37.50;;;13.05;;
3941;SDS011;1985;48.592;8.850;2022-12-18T04:24:53;43.83;;;14.90;;
3941;SDS011;1985;48.592;8.850;2022-12-18T04:27:18;39.20;;;13.45;;
3941;SDS011;1985;48.592;8.850;2022-12-18T04:29:44;36.80;;;13.18;;
3941;SDS011;1985;48.592;8.850;2022-12-18T04:32:10;38.47;;;13.35;;
3941;SDS011;1985;48.592;8.850;2022-12-18T04:34:35;44.67;;;15.07;;
3941;SDS011;1985;48.592;8.850;2022-12-18T04:37:01;42.30;;;14.50;;
3941;SDS011;1985;48.592;8.850;2022-12-18T04:39:26;40.80;;;13.30;;
3941;SDS011;1985;48.592;8.850;2022-12-18T04:41:52;31.53;;;13.00;;
3941;SDS011;1985;48.592;8.850;2022-12-18T04:44:18;31.27;;;12.93;;
3941;SDS011;1985;48.592;8.850;2022-12-18T04:46:43;31.87;;;12.37;;
3941;SDS011;1985;48.592;8.850;2022-12-18T04:49:09;38.60;;;13.30;;
3941;SDS011;1985;48.592;8.850;2022-12-18T04:51:35;33.10;;;13.00;;
3941;SDS011;1985;48.592;8.850;2022-12-18T04:54:02;35.72;;;13.00;;
3941;SDS011;1985;48.592;8.850;2022-12-18T04:56:27;37.20;;;14.00;;
3941;SDS011;1985;48.592;8.850;2022-12-18T04:58:53;54.10;;;15.80;;
3941;SDS011;1985;48.592;8.850;2022-12-18T05:01:19;34.90;;;12.07;;
3941;SDS011;1985;48.592;8.850;2022-12-18T05:03:44;44.47;;;12.53;;
3941;SDS011;1985;48.592;8.850;2022-12-18T05:06:10;37.67;;;13.83;;
3941;SDS011;1985;48.592;8.850;2022-12-18T05:08:36;38.78;;;13.90;;
3941;SDS011;1985;48.592;8.850;2022-12-18T05:11:03;43.92;;;13.23;;
3941;SDS011;1985;48.592;8.850;2022-12-18T05:13:36;43.92;;;15.20;;
3941;SDS011;1985;48.592;8.850;2022-12-18T05:16:02;38.70;;;13.68;;
3941;SDS011;1985;48.592;8.850;2022-12-18T05:18:28;39.00;;;13.73;;
3941;SDS011;1985;48.592;8.850;2022-12-18T05:20:54;41.05;;;13.20;;
3941;SDS011;1985;48.592;8.850;2022-12-18T05:23:21;34.30;;;11.07;;
3941;SDS011;1985;48.592;8.850;2022-12-18T05:25:54;46.50;;;14.30;;
3941;SDS011;1985;48.592;8.850;2022-12-18T05:28:21;47.58;;;14.45;;
3941;SDS011;1985;48.592;8.850;2022-12-18T05:30:49;41.57;;;14.90;;
3941;SDS011;1985;48.592;8.850;2022-12-18T05:33:20;45.78;;;13.70;;
3941;SDS011;1985;48.592;8.850;2022-12-18T05:35:53;41.53;;;14.00;;
3941;SDS011;1985;48.592;8.850;2022-12-18T05:38:20;39.63;;;14.27;;
3941;SDS011;1985;48.592;8.850;2022-12-18T05:40:47;45.08;;;14.77;;
3941;SDS011;1985;48.592;8.850;2022-12-18T05:43:14;41.70;;;14.60;;
3941;SDS011;1985;48.592;8.850;2022-12-18T05:45:40;47.30;;;13.95;;
3941;SDS011;1985;48.592;8.850;2022-12-18T05:48:06;47.93;;;16.80;;
3941;SDS011;1985;48.592;8.850;2022-12-18T05:50:36;45.60;;;14.07;;
3941;SDS011;1985;48.592;8.850;2022-12-18T05:53:03;54.70;;;15.98;;
3941;SDS011;1985;48.592;8.850;2022-12-18T05:55:29;54.38;;;13.88;;
3941;SDS011;1985;48.592;8.850;2022-12-18T05:57:58;56.08;;;15.63;;
3941;SDS011;1985;48.592;8.850;2022-12-18T06:00:24;41.03;;;14.57;;
3941;SDS011;1985;48.592;8.850;2022-12-18T06:02:49;41.60;;;14.80;;
3941;SDS011;1985;48.592;8.850;2022-12-18T06:05:15;43.87;;;13.67;;
3941;SDS011;1985;48.592;8.850;2022-12-18T06:07:41;46.13;;;14.63;;
3941;SDS011;1985;48.592;8.850;2022-12-18T06:10:06;42.97;;;13.07;;
3941;SDS011;1985;48.592;8.850;2022-12-18T06:12:32;48.00;;;13.60;;
3941;SDS011;1985;48.592;8.850;2022-12-18T06:15:01;40.55;;;14.18;;
3941;SDS011;1985;48.592;8.850;2022-12-18T06:17:30;51.00;;;13.73;;
3941;SDS011;1985;48.592;8.850;2022-12-18T06:19:56;43.70;;;11.90;;
3941;SDS011;1985;48.592;8.850;2022-12-18T06:22:22;34.47;;;11.68;;
3941;SDS011;1985;48.592;8.850;2022-12-18T06:24:47;32.05;;;12.73;;
3941;SDS011;1985;48.592;8.850;2022-12-18T06:27:13;35.97;;;13.60;;
3941;SDS011;1985;48.592;8.850;2022-12-18T06:29:39;24.48;;;10.95;;
3941;SDS011;1985;48.592;8.850;2022-12-18T06:32:04;34.80;;;12.70;;
3941;SDS011;1985;48.592;8.850;2022-12-18T06:34:30;38.50;;;12.48;;
3941;SDS011;1985;48.592;8.850;2022-12-18T06:36:56;37.63;;;11.30;;
3941;SDS011;1985;48.592;8.850;2022-12-18T06:39:21;33.60;;;11.90;;
3941;SDS011;1985;48.592;8.850;2022-12-18T06:41:47;36.50;;;12.07;;
3941;SDS011;1985;48.592;8.850;2022-12-18T06:44:13;33.67;;;10.67;;
3941;SDS011;1985;48.592;8.850;2022-12-18T06:46:40;32.10;;;11.35;;
3941;SDS011;1985;48.592;8.850;2022-12-18T06:49:05;30.65;;;10.20;;
3941;SDS011;1985;48.592;8.850;2022-12-18T06:51:31;25.30;;;10.63;;
3941;SDS011;1985;48.592;8.850;2022-12-18T06:53:57;28.17;;;11.20;;
3941;SDS011;1985;48.592;8.850;2022-12-18T06:56:22;25.83;;;10.10;;
3941;SDS011;1985;48.592;8.850;2022-12-18T06:58:51;30.30;;;10.93;;
3941;SDS011;1985;48.592;8.850;2022-12-18T07:01:17;32.70;;;12.80;;
3941;SDS011;1985;48.592;8.850;2022-12-18T07:03:43;31.55;;;10.77;;
3941;SDS011;1985;48.592;8.850;2022-12-18T07:06:16;29.13;;;11.18;;
3941;SDS011;1985;48.592;8.850;2022-12-18T07:08:44;32.42;;;10.63;;
3941;SDS011;1985;48.592;8.850;2022-12-18T07:11:10;30.75;;;10.90;;
3941;SDS011;1985;48.592;8.850;2022-12-18T07:13:37;29.45;;;10.82;;
3941;SDS011;1985;48.592;8.850;2022-12-18T07:16:06;21.27;;;8.80;;
3941;SDS011;1985;48.592;8.850;2022-12-18T07:18:33;26.77;;;9.65;;
3941;SDS011;1985;48.592;8.850;2022-12-18T07:21:02;27.20;;;10.40;;
3941;SDS011;1985;48.592;8.850;2022-12-18T07:23:29;32.42;;;9.52;;
3941;SDS011;1985;48.592;8.850;2022-12-18T07:25:54;32.38;;;11.45;;
3941;SDS011;1985;48.592;8.850;2022-12-18T07:28:20;23.90;;;10.70;;
3941;SDS011;1985;48.592;8.850;2022-12-18T07:30:45;27.23;;;9.57;;
3941;SDS011;1985;48.592;8.850;2022-12-18T07:33:11;29.92;;;11.35;;
3941;SDS011;1985;48.592;8.850;2022-12-18T07:35:37;35.13;;;10.83;;
3941;SDS011;1985;48.592;8.850;2022-12-18T07:38:02;33.17;;;10.80;;
3941;SDS011;1985;48.592;8.850;2022-12-18T07:40:28;26.00;;;10.43;;
3941;SDS011;1985;48.592;8.850;2022-12-18T07:42:53;26.43;;;10.90;;
3941;SDS011;1985;48.592;8.850;2022-12-18T07:45:19;30.80;;;11.03;;
3941;SDS011;1985;48.592;8.850;2022-12-18T07:47:45;29.77;;;10.40;;
3941;SDS011;1985;48.592;8.850;2022-12-18T07:50:10;34.10;;;11.30;;
3941;SDS011;1985;48.592;8.850;2022-12-18T07:52:36;32.90;;;12.60;;
3941;SDS011;1985;48.592;8.850;2022-12-18T07:55:02;38.60;;;13.40;;
3941;SDS011;1985;48.592;8.850;2022-12-18T07:57:27;32.15;;;12.13;;
3941;SDS011;1985;48.592;8.850;2022-12-18T07:59:53;30.88;;;12.77;;
3941;SDS011;1985;48.592;8.850;2022-12-18T08:02:19;36.25;;;12.55;;
3941;SDS011;1985;48.592;8.850;2022-12-18T08:04:44;38.75;;;13.50;;
3941;SDS011;1985;48.592;8.850;2022-12-18T08:07:10;29.75;;;12.45;;
3941;SDS011;1985;48.592;8.850;2022-12-18T08:09:35;32.30;;;11.13;;
3941;SDS011;1985;48.592;8.850;2022-12-18T08:12:01;53.92;;;16.02;;
3941;SDS011;1985;48.592;8.850;2022-12-18T08:14:27;40.03;;;13.57;;
3941;SDS011;1985;48.592;8.850;2022-12-18T08:16:52;40.85;;;15.82;;
3941;SDS011;1985;48.592;8.850;2022-12-18T08:19:18;43.53;;;15.75;;
3941;SDS011;1985;48.592;8.850;2022-12-18T08:21:43;39.80;;;13.15;;
3941;SDS011;1985;48.592;8.850;2022-12-18T08:24:09;33.00;;;13.07;;
3941;SDS011;1985;48.592;8.850;2022-12-18T08:26:35;35.75;;;12.90;;
3941;SDS011;1985;48.592;8.850;2022-12-18T08:29:01;32.25;;;13.60;;
3941;SDS011;1985;48.592;8.850;2022-12-18T08:31:27;28.65;;;12.85;;
3941;SDS011;1985;48.592;8.850;2022-12-18T08:33:54;34.80;;;13.30;;
3941;SDS011;1985;48.592;8.850;2022-12-18T08:36:21;35.95;;;12.32;;
3941;SDS011;1985;48.592;8.850;2022-12-18T08:38:47;30.20;;;11.63;;
3941;SDS011;1985;48.592;8.850;2022-12-18T08:41:13;28.37;;;9.97;;
3941;SDS011;1985;48.592;8.850;2022-12-18T08:43:40;24.38;;;10.27;;
3941;SDS011;1985;48.592;8.850;2022-12-18T08:46:27;29.52;;;11.90;;
3941;SDS011;1985;48.592;8.850;2022-12-18T08:49:07;32.92;;;11.55;;
3941;SDS011;1985;48.592;8.850;2022-12-18T08:51:34;27.77;;;11.70;;
3941;SDS011;1985;48.592;8.850;2022-12-18T08:54:00;30.63;;;10.17;;
3941;SDS011;1985;48.592;8.850;2022-12-18T08:56:26;26.70;;;11.43;;
3941;SDS011;1985;48.592;8.850;2022-12-18T08:58:52;31.33;;;11.93;;
3941;SDS011;1985;48.592;8.850;2022-12-18T09:01:19;33.22;;;10.82;;
3941;SDS011;1985;48.592;8.850;2022-12-18T09:03:45;30.48;;;12.90;;
3941;SDS011;1985;48.592;8.850;2022-12-18T09:06:13;28.42;;;11.68;;
3941;SDS011;1985;48.592;8.850;2022-12-18T09:08:39;33.10;;;10.98;;
3941;SDS011;1985;48.592;8.850;2022-12-18T09:11:09;30.17;;;11.68;;
3941;SDS011;1985;48.592;8.850;2022-12-18T09:13:55;34.72;;;11.73;;
3941;SDS011;1985;48.592;8.850;2022-12-18T09:16:22;34.75;;;13.20;;
3941;SDS011;1985;48.592;8.850;2022-12-18T09:18:48;32.10;;;11.70;;
3941;SDS011;1985;48.592;8.850;2022-12-18T09:21:15;28.17;;;11.18;;
3941;SDS011;1985;48.592;8.850;2022-12-18T09:23:49;26.88;;;11.07;;
3941;SDS011;1985;48.592;8.850;2022-12-18T09:26:15;25.83;;;10.40;;
3941;SDS011;1985;48.592;8.850;2022-12-18T09:28:41;29.20;;;10.20;;
3941;SDS011;1985;48.592;8.850;2022-12-18T09:31:08;23.40;;;9.90;;
3941;SDS011;1985;48.592;8.850;2022-12-18T09:33:36;25.45;;;11.20;;
3941;SDS011;1985;48.592;8.850;2022-12-18T09:36:05;25.17;;;10.30;;
3941;SDS011;1985;48.592;8.850;2022-12-18T09:38:32;29.05;;;9.82;;
3941;SDS011;1985;48.592;8.850;2022-12-18T09:40:59;27.85;;;10.23;;
3941;SDS011;1985;48.592;8.850;2022-12-18T09:43:37;31.30;;;11.95;;
3941;SDS011;1985;48.592;8.850;2022-12-18T09:46:19;28.95;;;12.30;;
3941;SDS011;1985;48.592;8.850;2022-12-18T09:48:52;27.08;;;11.20;;
3941;SDS011;1985;48.592;8.850;2022-12-18T09:51:24;27.60;;;11.98;;
3941;SDS011;1985;48.592;8.850;2022-12-18T09:54:02;29.60;;;10.80;;
3941;SDS011;1985;48.592;8.850;2022-12-18T09:56:34;26.70;;;11.50;;
3941;SDS011;1985;48.592;8.850;2022-12-18T09:59:03;29.75;;;12.43;;
3941;SDS011;1985;48.592;8.850;2022-12-18T10:01:30;33.45;;;12.05;;
3941;SDS011;1985;48.592;8.850;2022-12-18T10:03:57;27.52;;;11.02;;
3941;SDS011;1985;48.592;8.850;2022-12-18T10:09:37;31.80;;;12.80;;
3941;SDS011;1985;48.592;8.850;2022-12-18T10:17:21;32.00;;;14.20;;
3941;SDS011;1985;48.592;8.850;2022-12-18T10:20:02;34.75;;;15.10;;
3941;SDS011;1985;48.592;8.850;2022-12-18T10:28:25;43.23;;;17.77;;
3941;SDS011;1985;48.592;8.850;2022-12-18T10:30:52;38.08;;;14.98;;
3941;SDS011;1985;48.592;8.850;2022-12-18T10:33:19;43.58;;;15.82;;
3941;SDS011;1985;48.592;8.850;2022-12-18T10:35:51;42.83;;;17.50;;
3941;SDS011;1985;48.592;8.850;2022-12-18T10:38:21;37.42;;;16.15;;
3941;SDS011;1985;48.592;8.850;2022-12-18T10:43:13;39.60;;;17.27;;
3941;SDS011;1985;48.592;8.850;2022-12-18T10:45:41;35.45;;;16.00;;
3941;SDS011;1985;48.592;8.850;2022-12-18T10:48:19;30.95;;;14.70;;
3941;SDS011;1985;48.592;8.850;2022-12-18T10:50:49;36.67;;;15.30;;
3941;SDS011;1985;48.592;8.850;2022-12-18T10:53:20;38.55;;;15.85;;
3941;SDS011;1985;48.592;8.850;2022-12-18T10:55:49;37.85;;;16.40;;
3941;SDS011;1985;48.592;8.850;2022-12-18T11:03:33;36.42;;;16.85;;
3941;SDS011;1985;48.592;8.850;2022-12-18T11:06:09;37.25;;;15.73;;
3941;SDS011;1985;48.592;8.850;2022-12-18T11:08:35;38.10;;;16.48;;
3941;SDS011;1985;48.592;8.850;2022-12-18T11:11:02;39.15;;;16.35;;
3941;SDS011;1985;48.592;8.850;2022-12-18T11:13:31;52.38;;;21.10;;
3941;SDS011;1985;48.592;8.850;2022-12-18T11:15:58;45.53;;;17.63;;
3941;SDS011;1985;48.592;8.850;2022-12-18T11:20:55;40.33;;;15.75;;
3941;SDS011;1985;48.592;8.850;2022-12-18T11:23:24;34.00;;;14.75;;
3941;SDS011;1985;48.592;8.850;2022-12-18T11:25:52;37.55;;;14.70;;
3941;SDS011;1985;48.592;8.850;2022-12-18T11:29:07;39.08;;;16.60;;
3941;SDS011;1985;48.592;8.850;2022-12-18T11:31:32;38.53;;;14.80;;
3941;SDS011;1985;48.592;8.850;2022-12-18T11:34:00;40.33;;;15.80;;
3941;SDS011;1985;48.592;8.850;2022-12-18T11:36:46;44.47;;;16.27;;
3941;SDS011;1985;48.592;8.850;2022-12-18T11:42:14;36.08;;;15.20;;
3941;SDS011;1985;48.592;8.850;2022-12-18T11:45:25;38.38;;;15.70;;
3941;SDS011;1985;48.592;8.850;2022-12-18T11:50:38;42.65;;;18.40;;
3941;SDS011;1985;48.592;8.850;2022-12-18T11:53:16;42.63;;;17.88;;
3941;SDS011;1985;48.592;8.850;2022-12-18T11:58:42;44.97;;;17.80;;
3941;SDS011;1985;48.592;8.850;2022-12-18T12:06:32;48.00;;;17.30;;
3941;SDS011;1985;48.592;8.850;2022-12-18T12:09:21;42.17;;;17.38;;
3941;SDS011;1985;48.592;8.850;2022-12-18T12:11:54;41.60;;;15.93;;
3941;SDS011;1985;48.592;8.850;2022-12-18T12:17:23;37.73;;;15.87;;
3941;SDS011;1985;48.592;8.850;2022-12-18T12:22:46;38.90;;;17.30;;
3941;SDS011;1985;48.592;8.850;2022-12-18T12:25:56;38.55;;;15.43;;
3941;SDS011;1985;48.592;8.850;2022-12-18T12:39:30;35.97;;;14.57;;
3941;SDS011;1985;48.592;8.850;2022-12-18T12:42:04;41.60;;;14.80;;
3941;SDS011;1985;48.592;8.850;2022-12-18T12:44:58;36.70;;;15.93;;
3941;SDS011;1985;48.592;8.850;2022-12-18T12:47:31;38.85;;;15.82;;
3941;SDS011;1985;48.592;8.850;2022-12-18T12:50:06;39.17;;;15.90;;
3941;SDS011;1985;48.592;8.850;2022-12-18T12:52:41;42.20;;;14.95;;
3941;SDS011;1985;48.592;8.850;2022-12-18T12:55:28;34.00;;;14.32;;
3941;SDS011;1985;48.592;8.850;2022-12-18T12:57:59;40.70;;;14.67;;
3941;SDS011;1985;48.592;8.850;2022-12-18T13:00:39;35.70;;;14.82;;
3941;SDS011;1985;48.592;8.850;2022-12-18T13:05:57;34.75;;;14.13;;
3941;SDS011;1985;48.592;8.850;2022-12-18T13:08:29;32.60;;;13.25;;
3941;SDS011;1985;48.592;8.850;2022-12-18T13:10:59;39.50;;;14.75;;
3941;SDS011;1985;48.592;8.850;2022-12-18T13:13:53;35.80;;;14.03;;
3941;SDS011;1985;48.592;8.850;2022-12-18T13:16:22;38.33;;;14.20;;
3941;SDS011;1985;48.592;8.850;2022-12-18T13:18:53;37.83;;;14.67;;
3941;SDS011;1985;48.592;8.850;2022-12-18T13:21:27;40.13;;;14.60;;
3941;SDS011;1985;48.592;8.850;2022-12-18T13:23:54;36.63;;;14.85;;
3941;SDS011;1985;48.592;8.850;2022-12-18T13:28:54;35.20;;;13.27;;
3941;SDS011;1985;48.592;8.850;2022-12-18T13:36:46;34.67;;;13.23;;
3941;SDS011;1985;48.592;8.850;2022-12-18T13:41:45;29.77;;;12.50;;
3941;SDS011;1985;48.592;8.850;2022-12-18T13:44:13;33.10;;;13.73;;
3941;SDS011;1985;48.592;8.850;2022-12-18T13:46:49;33.00;;;14.07;;
3941;SDS011;1985;48.592;8.850;2022-12-18T13:51:54;40.17;;;13.52;;
3941;SDS011;1985;48.592;8.850;2022-12-18T13:54:32;31.20;;;13.60;;
3941;SDS011;1985;48.592;8.850;2022-12-18T13:57:05;37.30;;;14.18;;
3941;SDS011;1985;48.592;8.850;2022-12-18T13:59:50;34.73;;;13.33;;
3941;SDS011;1985;48.592;8.850;2022-12-18T14:02:16;40.38;;;14.20;;
3941;SDS011;1985;48.592;8.850;2022-12-18T14:04:46;36.72;;;15.30;;
3941;SDS011;1985;48.592;8.850;2022-12-18T14:09:49;40.88;;;14.32;;
3941;SDS011;1985;48.592;8.850;2022-12-18T14:12:32;34.72;;;13.73;;
3941;SDS011;1985;48.592;8.850;2022-12-18T14:17:59;34.00;;;13.30;;
3941;SDS011;1985;48.592;8.850;2022-12-18T14:20:39;46.58;;;15.82;;
3941;SDS011;1985;48.592;8.850;2022-12-18T14:23:24;40.70;;;16.30;;
3941;SDS011;1985;48.592;8.850;2022-12-18T14:25:52;52.15;;;19.35;;
3941;SDS011;1985;48.592;8.850;2022-12-18T14:28:18;49.13;;;18.33;;
3941;SDS011;1985;48.592;8.850;2022-12-18T14:30:44;40.88;;;15.90;;
3941;SDS011;1985;48.592;8.850;2022-12-18T14:33:12;46.65;;;16.55;;
3941;SDS011;1985;48.592;8.850;2022-12-18T14:43:37;35.97;;;13.65;;
3941;SDS011;1985;48.592;8.850;2022-12-18T14:46:05;43.25;;;15.70;;
3941;SDS011;1985;48.592;8.850;2022-12-18T14:48:50;34.08;;;14.10;;
3941;SDS011;1985;48.592;8.850;2022-12-18T14:51:23;41.40;;;14.55;;
3941;SDS011;1985;48.592;8.850;2022-12-18T14:54:01;31.58;;;13.27;;
3941;SDS011;1985;48.592;8.850;2022-12-18T14:56:35;35.28;;;13.55;;
3941;SDS011;1985;48.592;8.850;2022-12-18T14:59:14;36.33;;;13.32;;
3941;SDS011;1985;48.592;8.850;2022-12-18T15:04:38;34.70;;;12.93;;
3941;SDS011;1985;48.592;8.850;2022-12-18T15:07:16;36.60;;;13.43;;
3941;SDS011;1985;48.592;8.850;2022-12-18T15:09:47;30.88;;;12.60;;
3941;SDS011;1985;48.592;8.850;2022-12-18T15:12:26;33.67;;;12.60;;
3941;SDS011;1985;48.592;8.850;2022-12-18T15:15:02;30.35;;;11.48;;
3941;SDS011;1985;48.592;8.850;2022-12-18T15:17:28;26.57;;;10.33;;
3941;SDS011;1985;48.592;8.850;2022-12-18T15:20:01;26.43;;;10.80;;
3941;SDS011;1985;48.592;8.850;2022-12-18T15:22:34;36.35;;;12.43;;
3941;SDS011;1985;48.592;8.850;2022-12-18T15:25:00;31.95;;;12.35;;
3941;SDS011;1985;48.592;8.850;2022-12-18T15:27:31;35.77;;;13.37;;
3941;SDS011;1985;48.592;8.850;2022-12-18T15:32:38;34.25;;;13.90;;
3941;SDS011;1985;48.592;8.850;2022-12-18T15:37:34;34.47;;;12.57;;
3941;SDS011;1985;48.592;8.850;2022-12-18T15:39:59;32.80;;;13.13;;
3941;SDS011;1985;48.592;8.850;2022-12-18T15:42:25;40.93;;;14.70;;
3941;SDS011;1985;48.592;8.850;2022-12-18T15:45:12;43.88;;;15.00;;
3941;SDS011;1985;48.592;8.850;2022-12-18T15:47:38;38.08;;;15.18;;
3941;SDS011;1985;48.592;8.850;2022-12-18T15:50:04;40.10;;;14.50;;
3941;SDS011;1985;48.592;8.850;2022-12-18T15:52:31;37.40;;;13.47;;
3941;SDS011;1985;48.592;8.850;2022-12-18T15:55:19;38.05;;;14.50;;
3941;SDS011;1985;48.592;8.850;2022-12-18T15:58:06;38.07;;;14.97;;
3941;SDS011;1985;48.592;8.850;2022-12-18T16:00:32;36.97;;;14.23;;
3941;SDS011;1985;48.592;8.850;2022-12-18T16:03:00;33.83;;;13.98;;
3941;SDS011;1985;48.592;8.850;2022-12-18T16:05:26;40.72;;;15.40;;
3941;SDS011;1985;48.592;8.850;2022-12-18T16:07:52;37.50;;;13.55;;
3941;SDS011;1985;48.592;8.850;2022-12-18T16:10:18;32.57;;;12.17;;
3941;SDS011;1985;48.592;8.850;2022-12-18T16:12:44;33.05;;;12.85;;
3941;SDS011;1985;48.592;8.850;2022-12-18T16:15:11;33.22;;;14.57;;
3941;SDS011;1985;48.592;8.850;2022-12-18T16:17:39;37.92;;;15.15;;
3941;SDS011;1985;48.592;8.850;2022-12-18T16:20:06;46.10;;;15.93;;
3941;SDS011;1985;48.592;8.850;2022-12-18T16:22:42;40.67;;;15.53;;
3941;SDS011;1985;48.592;8.850;2022-12-18T16:25:20;34.37;;;12.03;;
3941;SDS011;1985;48.592;8.850;2022-12-18T16:27:48;30.45;;;12.00;;
3941;SDS011;1985;48.592;8.850;2022-12-18T16:30:14;30.60;;;12.40;;
3941;SDS011;1985;48.592;8.850;2022-12-18T16:32:41;38.10;;;15.10;;
3941;SDS011;1985;48.592;8.850;2022-12-18T16:35:09;43.27;;;15.63;;
3941;SDS011;1985;48.592;8.850;2022-12-18T16:37:39;35.67;;;14.43;;
3941;SDS011;1985;48.592;8.850;2022-12-18T16:40:06;46.67;;;16.67;;
3941;SDS011;1985;48.592;8.850;2022-12-18T16:42:34;38.30;;;14.67;;
3941;SDS011;1985;48.592;8.850;2022-12-18T16:45:01;31.05;;;14.07;;
3941;SDS011;1985;48.592;8.850;2022-12-18T16:47:27;36.17;;;14.60;;
3941;SDS011;1985;48.592;8.850;2022-12-18T16:49:52;46.60;;;17.60;;
3941;SDS011;1985;48.592;8.850;2022-12-18T16:52:18;43.50;;;16.37;;
3941;SDS011;1985;48.592;8.850;2022-12-18T16:54:44;36.60;;;16.93;;
3941;SDS011;1985;48.592;8.850;2022-12-18T16:57:12;53.80;;;19.80;;
3941;SDS011;1985;48.592;8.850;2022-12-18T16:59:38;59.80;;;21.57;;
3941;SDS011;1985;48.592;8.850;2022-12-18T17:02:04;52.80;;;20.10;;
3941;SDS011;1985;48.592;8.850;2022-12-18T17:04:31;59.80;;;22.25;;
3941;SDS011;1985;48.592;8.850;2022-12-18T17:06:57;49.20;;;19.00;;
3941;SDS011;1985;48.592;8.850;2022-12-18T17:09:23;39.43;;;16.13;;